Time;durP1;ratioP1;P1;durP2;ratioP2;P2;SDS_P1;SDS_P2;PMS_P1;PMS_P2;Temp;Humidity;BMP_temperature;BMP_pressure;BME280_temperature;BME280_humidity;BME280_pressure;Samples;Min_cycle;Max_cycle;Signal;HPM_P1;HPM_P2
2023/01/15 00:01:02;;;;;;;10.13;1.00;;;6.40;99.90;;;;;;5088035;28;20398;-81
2023/01/15 00:03:28;;;;;;;7.93;1.25;;;6.40;99.90;;;;;;5087370;28;20429;-84
2023/01/15 00:05:54;;;;;;;9.57;1.43;;;6.40;99.90;;;;;;5069811;28;20465;-81
2023/01/15 00:08:19;;;;;;;6.53;0.80;;;6.40;99.90;;;;;;5087900;28;20456;-82
2023/01/15 00:10:45;;;;;;;7.57;1.25;;;6.40;99.90;;;;;;5086187;28;20402;-82
2023/01/15 00:13:11;;;;;;;10.10;1.13;;;6.40;99.90;;;;;;5071136;28;20390;-82
2023/01/15 00:15:36;;;;;;;6.45;0.90;;;6.40;99.90;;;;;;5088481;28;20624;-79
2023/01/15 00:18:02;;;;;;;7.20;0.82;;;6.40;99.90;;;;;;5089818;28;20969;-80
2023/01/15 00:20:28;;;;;;;8.18;0.95;;;6.40;99.90;;;;;;5084565;28;20849;-79
2023/01/15 00:22:54;;;;;;;7.83;1.03;;;6.40;99.90;;;;;;5089345;28;20768;-79
2023/01/15 00:28:04;;;;;;;7.33;1.27;;;6.50;99.90;;;;;;5088580;28;20428;-79
2023/01/15 00:30:29;;;;;;;8.17;1.00;;;6.50;99.90;;;;;;5089958;28;20418;-79
2023/01/15 00:32:57;;;;;;;6.85;1.02;;;6.40;99.90;;;;;;5088605;28;20788;-79
2023/01/15 00:35:23;;;;;;;8.73;1.10;;;6.40;99.90;;;;;;5087977;28;20429;-79
2023/01/15 00:37:49;;;;;;;9.20;1.00;;;6.40;99.90;;;;;;5075427;28;20422;-79
2023/01/15 00:40:17;;;;;;;8.57;1.27;;;6.40;99.90;;;;;;5091131;28;20450;-79
2023/01/15 00:42:43;;;;;;;6.85;0.90;;;6.40;99.90;;;;;;5090426;28;20442;-80
2023/01/15 00:45:10;;;;;;;8.32;1.23;;;6.40;99.90;;;;;;5081000;28;20455;-80
2023/01/15 00:47:40;;;;;;;10.20;1.27;;;6.40;99.90;;;;;;5090960;28;20818;-81
2023/01/15 00:50:12;;;;;;;10.02;1.40;;;6.40;99.90;;;;;;5090097;28;20429;-80
2023/01/15 00:52:38;;;;;;;12.07;1.25;;;6.40;99.90;;;;;;5090866;28;20417;-80
2023/01/15 00:55:04;;;;;;;9.05;1.23;;;6.40;99.90;;;;;;5091535;28;20397;-80
2023/01/15 00:57:30;;;;;;;9.57;1.40;;;6.40;99.90;;;;;;5091006;28;20393;-80
2023/01/15 00:59:56;;;;;;;8.83;1.07;;;6.40;99.90;;;;;;5090209;28;20443;-80
2023/01/15 01:02:21;;;;;;;8.02;1.13;;;6.40;99.90;;;;;;5091632;28;20748;-80
2023/01/15 01:04:47;;;;;;;10.07;1.40;;;6.40;99.90;;;;;;5090293;28;20816;-80
2023/01/15 01:07:13;;;;;;;11.80;1.20;;;6.40;99.90;;;;;;5091208;28;20420;-80
2023/01/15 01:09:38;;;;;;;6.85;1.02;;;6.40;99.90;;;;;;5090531;28;20438;-80
2023/01/15 01:12:05;;;;;;;12.05;1.45;;;6.40;99.90;;;;;;5089970;28;20405;-80
2023/01/15 01:14:30;;;;;;;11.15;1.60;;;6.40;99.90;;;;;;5073301;28;20401;-80
2023/01/15 01:16:56;;;;;;;7.80;1.03;;;6.50;99.90;;;;;;5089791;28;20409;-80
2023/01/15 01:19:23;;;;;;;10.77;1.57;;;6.50;99.90;;;;;;5090367;28;20410;-80
2023/01/15 01:21:50;;;;;;;10.50;1.45;;;6.50;99.90;;;;;;5090413;28;20409;-80
2023/01/15 01:24:19;;;;;;;9.23;1.83;;;6.40;99.90;;;;;;5090483;28;20814;-80
2023/01/15 01:26:45;;;;;;;8.80;1.30;;;6.40;99.90;;;;;;5089926;28;20406;-80
2023/01/15 01:29:21;;;;;;;11.70;1.58;;;6.40;99.90;;;;;;5090181;28;20509;-80
2023/01/15 01:31:50;;;;;;;8.80;1.52;;;6.40;99.90;;;;;;5061373;28;20534;-80
2023/01/15 01:34:15;;;;;;;8.63;1.20;;;6.40;99.90;;;;;;5092148;28;20431;-80
2023/01/15 01:36:43;;;;;;;9.87;1.10;;;6.40;99.90;;;;;;5091755;28;21430;-80
2023/01/15 01:39:16;;;;;;;7.90;1.13;;;6.30;99.90;;;;;;5091130;28;20749;-80
2023/01/15 01:41:43;;;;;;;9.32;0.98;;;6.30;99.90;;;;;;5073669;28;20493;-80
2023/01/15 01:44:30;;;;;;;10.38;1.20;;;6.30;99.90;;;;;;5061610;28;20408;-80
2023/01/15 01:46:57;;;;;;;12.82;1.92;;;6.30;99.90;;;;;;5079836;28;20916;-80
2023/01/15 01:49:24;;;;;;;9.30;1.48;;;6.30;99.90;;;;;;5090578;28;20434;-81
2023/01/15 01:51:55;;;;;;;9.48;1.50;;;6.30;99.90;;;;;;5073603;28;20515;-80
2023/01/15 01:54:23;;;;;;;9.55;1.42;;;6.30;99.90;;;;;;5073315;28;20481;-81
2023/01/15 01:56:49;;;;;;;9.10;1.08;;;6.30;99.90;;;;;;5089081;28;20443;-80
2023/01/15 01:59:17;;;;;;;6.20;1.13;;;6.40;99.90;;;;;;5073056;28;20402;-81
2023/01/15 02:01:42;;;;;;;7.53;1.20;;;6.30;99.90;;;;;;5089513;28;20410;-80
2023/01/15 02:04:09;;;;;;;12.17;1.10;;;6.30;99.90;;;;;;5092311;28;20409;-80
2023/01/15 02:06:38;;;;;;;10.35;1.85;;;6.40;99.90;;;;;;5073602;28;20410;-80
2023/01/15 02:09:04;;;;;;;12.00;1.50;;;6.30;99.90;;;;;;5092633;28;20434;-79
2023/01/15 02:11:31;;;;;;;9.00;1.27;;;6.40;99.90;;;;;;5091639;28;20406;-80
2023/01/15 02:14:16;;;;;;;13.30;1.55;;;6.40;99.90;;;;;;5092145;28;20413;-80
2023/01/15 02:16:53;;;;;;;11.65;1.48;;;6.30;99.90;;;;;;5093088;28;20416;-80
2023/01/15 02:19:58;;;;;;;11.82;1.45;;;6.40;99.90;;;;;;5102115;28;21023;-80
2023/01/15 02:22:46;;;;;;;10.63;1.50;;;6.40;99.90;;;;;;5073782;28;20421;-80
2023/01/15 02:25:20;;;;;;;10.80;1.60;;;6.40;99.90;;;;;;5068918;28;20410;-80
2023/01/15 02:27:58;;;;;;;8.95;1.48;;;6.40;99.90;;;;;;5092484;28;20410;-80
2023/01/15 02:30:38;;;;;;;10.43;1.70;;;6.30;99.90;;;;;;5091008;28;21119;-80
2023/01/15 02:33:10;;;;;;;9.23;1.40;;;6.30;99.90;;;;;;5093651;28;20439;-80
2023/01/15 02:35:40;;;;;;;8.05;0.98;;;6.30;99.90;;;;;;5091184;28;20445;-80
2023/01/15 02:38:10;;;;;;;8.10;1.30;;;6.30;99.90;;;;;;5071715;28;20433;-80
2023/01/15 02:40:38;;;;;;;9.77;1.50;;;6.30;99.90;;;;;;5092301;28;20426;-80
2023/01/15 02:43:06;;;;;;;9.65;1.42;;;6.30;99.90;;;;;;5088499;28;20503;-80
2023/01/15 02:45:36;;;;;;;11.90;1.55;;;6.30;99.90;;;;;;5087883;28;20416;-80
2023/01/15 02:48:07;;;;;;;15.00;1.50;;;6.30;99.90;;;;;;5088545;28;20425;-80
2023/01/15 02:50:43;;;;;;;10.93;1.30;;;6.30;99.90;;;;;;5065652;28;20973;-80
2023/01/15 02:53:15;;;;;;;13.68;1.58;;;6.30;99.90;;;;;;5076780;28;20403;-80
2023/01/15 02:55:45;;;;;;;10.33;1.50;;;6.30;99.90;;;;;;5057092;28;21790;-80
2023/01/15 02:58:15;;;;;;;8.95;1.35;;;6.30;99.90;;;;;;5097961;27;20397;-80
2023/01/15 03:00:46;;;;;;;10.73;1.33;;;6.30;99.90;;;;;;5084968;28;20404;-80
2023/01/15 03:03:29;;;;;;;9.57;1.60;;;6.30;99.90;;;;;;5105341;28;20439;-80
2023/01/15 03:06:21;;;;;;;10.03;1.40;;;6.30;99.90;;;;;;5089437;28;20914;-80
2023/01/15 03:08:47;;;;;;;13.00;1.60;;;6.30;99.90;;;;;;5061003;28;20932;-80
2023/01/15 03:11:15;;;;;;;13.13;1.33;;;6.30;99.90;;;;;;5071048;28;20452;-80
2023/01/15 03:13:59;;;;;;;9.47;1.80;;;6.30;99.90;;;;;;5089456;28;20394;-80
2023/01/15 03:16:39;;;;;;;9.88;1.13;;;6.30;99.90;;;;;;5071078;28;20745;-80
2023/01/15 03:19:36;;;;;;;8.95;1.13;;;6.30;99.90;;;;;;5087552;28;21387;-80
2023/01/15 03:22:10;;;;;;;10.05;1.50;;;6.30;99.90;;;;;;5087421;28;20418;-80
2023/01/15 03:24:51;;;;;;;11.30;1.20;;;6.30;99.90;;;;;;5087137;28;20413;-80
2023/01/15 03:27:16;;;;;;;11.18;1.50;;;6.30;99.90;;;;;;5086991;28;20950;-80
2023/01/15 03:29:46;;;;;;;11.52;1.55;;;6.20;99.90;;;;;;5069757;28;20475;-80
2023/01/15 03:32:13;;;;;;;12.07;1.60;;;6.30;99.90;;;;;;5086548;28;20402;-80
2023/01/15 03:34:53;;;;;;;10.23;1.30;;;6.30;99.90;;;;;;5087252;28;20398;-80
2023/01/15 03:37:22;;;;;;;11.20;2.00;;;6.30;99.90;;;;;;5087027;28;20485;-80
2023/01/15 03:39:48;;;;;;;11.93;1.63;;;6.30;99.90;;;;;;5086858;28;20406;-80
2023/01/15 03:42:17;;;;;;;11.80;1.67;;;6.30;99.90;;;;;;5087228;28;20397;-80
2023/01/15 03:44:42;;;;;;;8.88;1.85;;;6.30;99.90;;;;;;5087367;28;20448;-80
2023/01/15 03:47:41;;;;;;;11.85;1.52;;;6.30;99.90;;;;;;5087095;28;20445;-80
2023/01/15 03:50:30;;;;;;;10.68;1.40;;;6.30;99.90;;;;;;5069256;28;20441;-80
2023/01/15 03:53:19;;;;;;;10.90;1.50;;;6.30;99.90;;;;;;5086382;28;20844;-80
2023/01/15 03:56:07;;;;;;;10.73;1.45;;;6.30;99.90;;;;;;5094057;28;20504;-80
2023/01/15 03:58:43;;;;;;;9.75;1.73;;;6.30;99.90;;;;;;5068387;28;20398;-80
2023/01/15 04:01:13;;;;;;;11.20;1.33;;;6.30;99.90;;;;;;5087088;28;20493;-81
2023/01/15 04:03:38;;;;;;;11.60;1.65;;;6.30;99.90;;;;;;5089069;28;20424;-80
2023/01/15 04:06:05;;;;;;;13.20;1.70;;;6.30;99.90;;;;;;5087639;28;20911;-80
2023/01/15 04:08:38;;;;;;;9.98;1.80;;;6.30;99.90;;;;;;5089116;28;20412;-80
2023/01/15 04:11:04;;;;;;;12.52;2.00;;;6.30;99.90;;;;;;5089548;28;20392;-80
2023/01/15 04:13:30;;;;;;;9.20;1.45;;;6.30;99.90;;;;;;5087879;28;20899;-80
2023/01/15 04:15:56;;;;;;;12.15;1.60;;;6.20;99.90;;;;;;5089496;28;20399;-80
2023/01/15 04:18:22;;;;;;;10.00;1.75;;;6.20;99.90;;;;;;5087959;28;20486;-80
2023/01/15 04:20:48;;;;;;;8.43;1.23;;;6.20;99.90;;;;;;5089146;28;20444;-80
2023/01/15 04:23:14;;;;;;;10.03;1.37;;;6.20;99.90;;;;;;5088013;28;20807;-80
2023/01/15 04:25:40;;;;;;;9.77;1.40;;;6.10;99.90;;;;;;5088444;28;20402;-80
2023/01/15 04:28:07;;;;;;;10.95;1.27;;;6.10;99.90;;;;;;5084641;28;20431;-80
2023/01/15 04:30:34;;;;;;;10.10;1.37;;;6.10;99.90;;;;;;5067907;28;20459;-80
2023/01/15 04:33:00;;;;;;;13.45;1.88;;;6.10;99.90;;;;;;5087506;28;20524;-80
2023/01/15 04:35:26;;;;;;;9.53;1.10;;;6.10;99.90;;;;;;5087332;28;20500;-80
2023/01/15 04:37:58;;;;;;;8.37;1.17;;;6.10;99.90;;;;;;5074672;28;20928;-80
2023/01/15 04:45:55;;;;;;;12.18;1.60;;;6.10;99.90;;;;;;5074669;28;20520;-80
2023/01/15 04:48:21;;;;;;;11.10;1.52;;;6.10;99.90;;;;;;5086239;28;20481;-80
2023/01/15 04:50:46;;;;;;;10.17;1.57;;;6.10;99.90;;;;;;5069095;28;20429;-80
2023/01/15 04:53:12;;;;;;;9.43;1.55;;;6.10;99.90;;;;;;5069958;28;20752;-80
2023/01/15 04:55:38;;;;;;;9.25;1.20;;;6.00;99.90;;;;;;5069793;28;20745;-80
2023/01/15 04:58:03;;;;;;;8.70;1.47;;;6.00;99.90;;;;;;5086807;28;20402;-81
2023/01/15 05:00:29;;;;;;;8.80;1.13;;;6.00;99.90;;;;;;5086765;28;20397;-80
2023/01/15 05:02:55;;;;;;;12.35;1.65;;;6.00;99.90;;;;;;5058912;28;20478;-81
2023/01/15 05:05:20;;;;;;;10.40;1.73;;;5.90;99.90;;;;;;5083956;28;20790;-80
2023/01/15 05:07:46;;;;;;;8.70;1.52;;;6.00;99.90;;;;;;5086506;28;20402;-81
2023/01/15 05:10:12;;;;;;;12.55;2.22;;;5.90;99.90;;;;;;5083016;28;21063;-81
2023/01/15 05:12:37;;;;;;;11.07;1.70;;;5.90;99.90;;;;;;5075734;28;20806;-80
2023/01/15 05:15:03;;;;;;;8.18;1.00;;;5.90;99.90;;;;;;5077774;28;20486;-80
2023/01/15 05:17:31;;;;;;;11.32;1.63;;;5.90;99.90;;;;;;5096333;28;20433;-81
2023/01/15 05:19:57;;;;;;;10.95;1.50;;;5.90;99.90;;;;;;5080670;28;20418;-80
2023/01/15 05:22:22;;;;;;;9.37;1.47;;;5.90;99.90;;;;;;5087099;28;20776;-81
2023/01/15 05:24:48;;;;;;;10.40;1.53;;;5.80;99.90;;;;;;5089287;28;20393;-80
2023/01/15 05:27:13;;;;;;;12.07;1.65;;;5.80;99.90;;;;;;5092774;28;20406;-80
2023/01/15 05:29:39;;;;;;;9.30;1.30;;;5.80;99.90;;;;;;5090802;28;20523;-80
2023/01/15 05:32:05;;;;;;;7.88;1.52;;;5.80;99.90;;;;;;5070513;28;20416;-80
2023/01/15 05:34:30;;;;;;;13.47;1.70;;;5.80;99.90;;;;;;5072306;28;20398;-81
2023/01/15 05:36:56;;;;;;;12.53;2.00;;;5.80;99.90;;;;;;5089849;28;20406;-81
2023/01/15 05:39:22;;;;;;;9.18;1.33;;;5.70;99.90;;;;;;5089129;28;20496;-80
2023/01/15 05:41:49;;;;;;;13.00;1.45;;;5.80;99.90;;;;;;5090563;28;21578;-80
2023/01/15 05:44:26;;;;;;;14.48;1.75;;;5.70;99.90;;;;;;5109202;28;20432;-80
2023/01/15 05:46:55;;;;;;;11.20;1.63;;;5.70;99.90;;;;;;5088254;28;20418;-80
2023/01/15 05:49:23;;;;;;;9.40;1.57;;;5.70;99.90;;;;;;5075726;28;20429;-80
2023/01/15 05:51:49;;;;;;;11.43;1.52;;;5.70;99.90;;;;;;5090604;28;20398;-80
2023/01/15 05:54:18;;;;;;;12.32;2.00;;;5.70;99.90;;;;;;5084966;28;20475;-80
2023/01/15 05:56:47;;;;;;;14.88;2.05;;;5.70;99.90;;;;;;5091063;28;20483;-81
2023/01/15 05:59:15;;;;;;;11.35;1.67;;;5.70;99.90;;;;;;5083926;28;20403;-80
2023/01/15 06:01:41;;;;;;;9.17;1.77;;;5.70;99.90;;;;;;5073651;28;20919;-80
2023/01/15 06:04:10;;;;;;;11.63;1.20;;;5.70;99.90;;;;;;5090239;28;20401;-80
2023/01/15 06:06:35;;;;;;;12.48;1.88;;;5.70;99.90;;;;;;5072212;28;20879;-80
2023/01/15 06:09:02;;;;;;;11.88;1.88;;;5.60;99.90;;;;;;5091506;28;20619;-80
2023/01/15 06:11:28;;;;;;;7.55;1.20;;;5.70;99.90;;;;;;5089443;28;20915;-80
2023/01/15 06:13:54;;;;;;;11.23;1.88;;;5.60;99.90;;;;;;5091546;28;20398;-80
2023/01/15 06:16:20;;;;;;;10.73;1.40;;;5.60;99.90;;;;;;5091428;28;20390;-80
2023/01/15 06:18:46;;;;;;;10.45;1.20;;;5.60;99.90;;;;;;5091437;28;20445;-81
2023/01/15 06:21:13;;;;;;;10.05;1.90;;;5.60;99.90;;;;;;5090808;28;20426;-81
2023/01/15 06:23:40;;;;;;;10.03;1.50;;;5.60;99.90;;;;;;5090642;28;20402;-81
2023/01/15 06:26:17;;;;;;;10.13;1.27;;;5.60;99.90;;;;;;5089227;28;20478;-80
2023/01/15 06:28:43;;;;;;;13.10;1.67;;;5.60;99.90;;;;;;5090440;28;20584;-81
2023/01/15 06:31:11;;;;;;;9.13;1.50;;;5.60;99.90;;;;;;5075514;28;20921;-81
2023/01/15 06:33:37;;;;;;;8.98;1.30;;;5.60;99.90;;;;;;5076705;28;20486;-80
2023/01/15 06:36:08;;;;;;;9.23;1.52;;;5.50;99.90;;;;;;5071243;28;20493;-79
2023/01/15 06:38:34;;;;;;;7.18;1.10;;;5.50;99.90;;;;;;5078261;28;20418;-80
2023/01/15 06:41:01;;;;;;;10.23;1.15;;;5.60;99.90;;;;;;5101274;28;20416;-80
2023/01/15 06:48:56;;;;;;;9.02;1.20;;;5.60;99.90;;;;;;5088383;28;20418;-79
2023/01/15 06:51:23;;;;;;;7.77;1.17;;;5.50;99.90;;;;;;5088421;28;20413;-80
2023/01/15 06:53:48;;;;;;;8.95;1.30;;;5.50;99.90;;;;;;5087655;28;20492;-80
2023/01/15 06:56:14;;;;;;;7.47;0.90;;;5.50;99.90;;;;;;5087770;28;20505;-80
2023/01/15 06:58:41;;;;;;;9.38;1.10;;;5.40;99.90;;;;;;5087897;28;20899;-80
2023/01/15 07:01:12;;;;;;;10.43;1.13;;;5.40;99.90;;;;;;5070716;28;20410;-80
2023/01/15 07:03:37;;;;;;;8.77;1.30;;;5.40;99.90;;;;;;5087963;28;20509;-80
2023/01/15 07:06:08;;;;;;;5.90;1.00;;;5.40;99.90;;;;;;5080314;28;20851;-79
2023/01/15 07:08:34;;;;;;;8.68;1.30;;;5.40;99.90;;;;;;5087248;28;20410;-80
2023/01/15 07:11:05;;;;;;;10.13;1.50;;;5.40;99.90;;;;;;5093831;28;20812;-80
2023/01/15 07:13:31;;;;;;;7.13;1.10;;;5.40;99.90;;;;;;5082102;28;21229;-80
2023/01/15 07:16:01;;;;;;;6.47;1.00;;;5.40;99.90;;;;;;5087605;28;20937;-80
2023/01/15 07:18:28;;;;;;;7.68;0.95;;;5.40;99.90;;;;;;5087474;28;21016;-80
2023/01/15 07:20:55;;;;;;;10.40;1.52;;;5.40;99.90;;;;;;5081917;28;20412;-80
2023/01/15 07:23:22;;;;;;;11.23;1.52;;;5.40;99.90;;;;;;5080278;28;20408;-80
2023/01/15 07:25:48;;;;;;;8.43;0.98;;;5.40;99.90;;;;;;5087744;28;20430;-80
2023/01/15 07:28:13;;;;;;;9.90;1.13;;;5.40;99.90;;;;;;5087843;28;20491;-80
2023/01/15 07:30:39;;;;;;;10.00;1.30;;;5.40;99.90;;;;;;5088807;28;20426;-80
2023/01/15 07:33:05;;;;;;;9.53;1.40;;;5.40;99.90;;;;;;5088839;28;20405;-79
2023/01/15 07:35:30;;;;;;;8.68;1.20;;;5.50;99.90;;;;;;5088491;28;20410;-80
2023/01/15 07:37:56;;;;;;;9.20;1.10;;;5.40;99.90;;;;;;5087501;28;20507;-79
2023/01/15 07:40:21;;;;;;;7.53;1.23;;;5.40;99.90;;;;;;5072915;28;20486;-81
2023/01/15 07:49:44;;;;;;;8.02;1.05;;;5.50;99.90;;;;;;5086885;28;20412;-80
2023/01/15 07:51:16;;;;;;;8.50;1.10;;;5.50;99.90;;;;;;5075540;28;20482;-79
2023/01/15 07:53:42;;;;;;;6.33;0.80;;;5.50;99.90;;;;;;5086433;28;20514;-79
2023/01/15 07:56:08;;;;;;;7.70;1.02;;;5.50;99.90;;;;;;5087646;28;20849;-80
2023/01/15 07:58:34;;;;;;;10.30;1.48;;;5.50;99.90;;;;;;5065484;28;20776;-79
2023/01/15 08:00:59;;;;;;;10.57;1.08;;;5.40;99.90;;;;;;5090353;28;20463;-80
2023/01/15 08:03:25;;;;;;;8.83;1.10;;;5.50;99.90;;;;;;5106294;28;20404;-80
2023/01/15 08:05:50;;;;;;;8.98;1.00;;;5.50;99.90;;;;;;5089493;28;20441;-79
2023/01/15 08:08:17;;;;;;;7.27;1.03;;;5.50;99.90;;;;;;5086081;28;20995;-80
2023/01/15 08:16:14;;;;;;;5.28;1.00;;;5.40;99.90;;;;;;5076359;28;20406;-80
2023/01/15 08:18:39;;;;;;;8.50;1.27;;;5.50;99.90;;;;;;5068990;28;21615;-80
2023/01/15 08:21:05;;;;;;;12.43;1.17;;;5.50;99.90;;;;;;5084175;28;20409;-79
2023/01/15 08:23:31;;;;;;;7.00;0.90;;;5.60;99.90;;;;;;5076409;28;20485;-80
2023/01/15 08:26:00;;;;;;;10.20;1.50;;;5.60;99.90;;;;;;5099548;28;20479;-79
2023/01/15 08:28:26;;;;;;;7.82;0.98;;;5.60;99.90;;;;;;5086580;28;20420;-80
2023/01/15 08:30:52;;;;;;;8.15;1.33;;;5.60;99.90;;;;;;5087969;28;20426;-80
2023/01/15 08:33:17;;;;;;;7.30;1.10;;;5.60;99.90;;;;;;5088077;28;20481;-80
2023/01/15 08:35:43;;;;;;;8.73;1.02;;;5.60;99.90;;;;;;5085842;28;20410;-79
2023/01/15 08:38:09;;;;;;;9.83;1.20;;;5.60;99.90;;;;;;5069315;28;20411;-80
2023/01/15 08:40:57;;;;;;;9.02;1.23;;;5.60;99.90;;;;;;5100368;28;20406;-80
2023/01/15 08:43:21;;;;;;;8.00;1.00;;;5.60;99.90;;;;;;5084702;28;20437;-81
2023/01/15 08:45:47;;;;;;;9.67;1.27;;;5.60;99.90;;;;;;5067144;28;20402;-80
2023/01/15 08:48:12;;;;;;;9.70;1.15;;;5.50;99.90;;;;;;5080747;28;20408;-81
2023/01/15 08:50:38;;;;;;;10.83;1.33;;;5.50;99.90;;;;;;5082041;28;20438;-81
2023/01/15 08:53:04;;;;;;;9.83;1.40;;;5.60;99.90;;;;;;5085935;28;20406;-82
2023/01/15 08:55:29;;;;;;;10.63;1.23;;;5.60;99.90;;;;;;5064081;28;20403;-81
2023/01/15 08:57:55;;;;;;;9.97;1.13;;;5.60;99.90;;;;;;5076479;28;20410;-81
2023/01/15 09:00:23;;;;;;;8.55;1.40;;;5.70;99.90;;;;;;5060386;28;20421;-80
2023/01/15 09:02:51;;;;;;;9.52;1.27;;;5.70;99.90;;;;;;5066944;28;20403;-81
2023/01/15 09:05:17;;;;;;;9.77;1.60;;;5.70;99.90;;;;;;5085493;28;20405;-81
2023/01/15 09:07:43;;;;;;;10.60;1.30;;;5.70;99.90;;;;;;5054215;28;20410;-81
2023/01/15 09:10:09;;;;;;;7.37;0.90;;;5.70;99.90;;;;;;5079018;28;20840;-80
2023/01/15 09:12:35;;;;;;;9.15;1.55;;;5.70;99.90;;;;;;5081371;28;20775;-81
2023/01/15 09:15:00;;;;;;;8.82;1.77;;;5.60;99.90;;;;;;5088457;28;20510;-81
2023/01/15 09:17:26;;;;;;;7.37;1.30;;;5.60;99.90;;;;;;5071372;28;20459;-81
2023/01/15 09:19:52;;;;;;;11.00;1.65;;;5.40;99.90;;;;;;5083578;28;20408;-81
2023/01/15 09:22:18;;;;;;;6.73;1.00;;;5.10;99.90;;;;;;5060795;28;20402;-81
2023/01/15 09:24:43;;;;;;;5.65;1.05;;;5.00;99.90;;;;;;5069131;28;20406;-81
2023/01/15 09:27:12;;;;;;;8.50;1.02;;;4.80;99.90;;;;;;5067413;28;20512;-81
2023/01/15 09:29:38;;;;;;;7.38;0.82;;;4.90;99.90;;;;;;5089612;28;20435;-81
2023/01/15 09:32:04;;;;;;;7.20;1.20;;;4.90;99.90;;;;;;5055542;28;20400;-81
2023/01/15 09:34:30;;;;;;;8.20;0.95;;;4.90;99.90;;;;;;5063979;28;20417;-81
2023/01/15 09:36:56;;;;;;;10.47;1.20;;;5.00;99.90;;;;;;5088257;28;20402;-81
2023/01/15 09:39:21;;;;;;;11.80;1.52;;;5.00;99.90;;;;;;5067687;28;20430;-81
2023/01/15 09:42:09;;;;;;;5.38;0.95;;;5.10;99.90;;;;;;5078098;28;20498;-81
2023/01/15 09:44:47;;;;;;;8.30;1.27;;;5.20;99.90;;;;;;5078934;28;20430;-81
2023/01/15 09:47:26;;;;;;;8.00;1.00;;;5.30;99.90;;;;;;5092215;28;20471;-79
2023/01/15 09:50:13;;;;;;;8.37;1.03;;;5.30;99.90;;;;;;5077325;28;20430;-80
2023/01/15 09:52:48;;;;;;;9.68;1.20;;;5.30;99.90;;;;;;5075965;28;20615;-80
2023/01/15 09:55:49;;;;;;;8.95;1.38;;;5.40;99.90;;;;;;5084386;28;20932;-80
2023/01/15 09:58:19;;;;;;;9.15;1.50;;;5.50;99.90;;;;;;5073986;28;20431;-80
2023/01/15 10:00:48;;;;;;;7.90;1.07;;;5.50;99.90;;;;;;5064167;28;20429;-80
2023/01/15 10:03:46;;;;;;;7.75;1.30;;;5.50;99.90;;;;;;5090234;28;20505;-80
2023/01/15 10:06:18;;;;;;;7.40;0.90;;;5.60;99.90;;;;;;5073458;28;20924;-80
2023/01/15 10:08:49;;;;;;;9.75;1.50;;;5.60;99.90;;;;;;5073364;28;20441;-80
2023/01/15 10:11:14;;;;;;;12.48;1.67;;;5.70;99.90;;;;;;5093811;28;20425;-81
2023/01/15 10:13:47;;;;;;;9.30;1.30;;;5.70;99.90;;;;;;5100184;28;20410;-81
2023/01/15 10:16:21;;;;;;;8.50;1.27;;;5.80;99.90;;;;;;5104900;28;20921;-80
2023/01/15 10:18:47;;;;;;;6.93;1.10;;;5.90;99.90;;;;;;5098168;28;20413;-81
2023/01/15 10:21:43;;;;;;;8.45;1.10;;;6.10;99.90;;;;;;5092529;28;20404;-81
2023/01/15 10:24:33;;;;;;;9.00;2.05;;;6.20;99.90;;;;;;5090355;28;20931;-80
2023/01/15 10:27:01;;;;;;;8.13;1.30;;;6.30;99.90;;;;;;5091502;28;20409;-81
2023/01/15 10:29:40;;;;;;;7.47;1.50;;;6.40;99.90;;;;;;5089917;28;20435;-81
2023/01/15 10:32:31;;;;;;;9.77;1.60;;;6.50;99.90;;;;;;5106581;28;20457;-81
2023/01/15 10:35:09;;;;;;;10.07;1.20;;;6.50;99.90;;;;;;5098599;28;20405;-81
2023/01/15 10:37:45;;;;;;;6.75;1.27;;;6.70;99.90;;;;;;5106376;28;20491;-81
2023/01/15 10:40:44;;;;;;;7.82;0.90;;;6.80;99.90;;;;;;5103905;28;20409;-81
2023/01/15 10:43:34;;;;;;;6.35;1.15;;;6.90;99.90;;;;;;5082607;28;20408;-81
2023/01/15 10:46:07;;;;;;;12.57;1.63;;;7.10;99.90;;;;;;5077082;28;20507;-81
2023/01/15 10:48:58;;;;;;;9.88;1.35;;;7.20;99.90;;;;;;5095011;28;20438;-81
2023/01/15 10:51:31;;;;;;;9.25;1.50;;;7.20;99.90;;;;;;5082505;28;20464;-81
2023/01/15 10:54:10;;;;;;;9.07;1.17;;;7.20;99.90;;;;;;5091525;28;20499;-81
2023/01/15 10:57:01;;;;;;;9.00;1.05;;;7.30;99.90;;;;;;5096976;28;20468;-81
2023/01/15 10:59:46;;;;;;;8.05;1.20;;;7.40;99.90;;;;;;5095251;28;20770;-81
2023/01/15 11:02:47;;;;;;;8.90;1.33;;;7.60;99.90;;;;;;5073285;28;20439;-78
2023/01/15 11:05:18;;;;;;;9.93;1.25;;;7.60;99.90;;;;;;5040857;28;21188;-80
2023/01/15 11:07:52;;;;;;;8.70;1.38;;;7.70;99.90;;;;;;5096216;28;20475;-79
2023/01/15 11:10:21;;;;;;;9.25;1.50;;;7.70;99.90;;;;;;5093988;28;20464;-79
2023/01/15 11:21:20;;;;;;;10.30;1.40;;;8.10;99.90;;;;;;5091104;28;20469;-79
2023/01/15 11:23:47;;;;;;;11.73;1.30;;;8.40;99.90;;;;;;5077444;28;20494;-80
2023/01/15 11:26:23;;;;;;;7.93;1.10;;;8.80;99.90;;;;;;5099487;28;20906;-79
2023/01/15 11:28:49;;;;;;;9.77;1.17;;;8.90;99.90;;;;;;5070418;28;20460;-79
2023/01/15 11:31:15;;;;;;;8.85;1.65;;;8.70;99.90;;;;;;5085435;28;20412;-79
2023/01/15 11:34:02;;;;;;;9.88;1.30;;;8.40;99.90;;;;;;5076062;28;20402;-79
2023/01/15 11:36:29;;;;;;;6.15;1.02;;;8.20;99.90;;;;;;5086705;28;20414;-80
2023/01/15 11:38:56;;;;;;;9.73;1.20;;;8.10;99.90;;;;;;5087284;28;20402;-79
2023/01/15 11:52:46;;;;;;;8.85;1.48;;;7.60;99.90;;;;;;5087794;28;20427;-79
2023/01/15 11:55:16;;;;;;;10.10;1.85;;;7.50;99.90;;;;;;5087281;28;20417;-79
2023/01/15 11:57:43;;;;;;;9.15;1.15;;;7.50;99.90;;;;;;5088154;28;20405;-79
2023/01/15 12:00:42;;;;;;;8.37;1.47;;;7.40;99.90;;;;;;5089440;28;20773;-79
2023/01/15 12:03:30;;;;;;;8.73;1.25;;;7.30;99.90;;;;;;5088140;28;20477;-79
2023/01/15 12:06:01;;;;;;;9.27;1.20;;;7.30;99.90;;;;;;5086948;28;20504;-79
2023/01/15 12:08:50;;;;;;;9.07;1.38;;;7.20;99.90;;;;;;5089310;28;20779;-79
2023/01/15 12:11:51;;;;;;;9.73;1.70;;;7.10;99.90;;;;;;5071726;28;20897;-79
2023/01/15 12:14:31;;;;;;;11.18;1.40;;;7.00;99.90;;;;;;5090282;28;20429;-79
2023/01/15 12:17:20;;;;;;;10.85;1.98;;;6.80;99.90;;;;;;5088843;28;20426;-79
2023/01/15 12:20:23;;;;;;;15.13;1.70;;;6.60;99.90;;;;;;5070366;28;20562;-78
2023/01/15 12:23:08;;;;;;;11.73;1.95;;;6.40;99.90;;;;;;5089414;28;20422;-78
2023/01/15 12:25:48;;;;;;;9.15;1.70;;;6.30;99.90;;;;;;5087352;28;20463;-78
2023/01/15 12:28:23;;;;;;;9.80;1.47;;;6.20;99.90;;;;;;5059630;28;20425;-78
2023/01/15 12:31:12;;;;;;;10.02;1.35;;;6.10;99.90;;;;;;5087138;28;20430;-78
2023/01/15 12:33:51;;;;;;;13.90;2.10;;;6.00;99.90;;;;;;5090017;28;20425;-79
2023/01/15 12:36:26;;;;;;;12.43;2.33;;;6.00;99.90;;;;;;5091582;28;20406;-78
2023/01/15 12:39:11;;;;;;;12.80;1.70;;;5.90;99.90;;;;;;5091659;28;20413;-79
2023/01/15 12:47:24;;;;;;;4.23;0.47;;;5.20;99.90;;;;;;5092579;28;20907;-78
2023/01/15 12:50:26;;;;;;;3.43;0.40;;;5.10;99.90;;;;;;5093491;28;20496;-78
2023/01/15 12:53:15;;;;;;;1.65;0.20;;;5.00;99.90;;;;;;5076962;28;20776;-78
2023/01/15 12:56:13;;;;;;;2.70;0.28;;;5.00;99.90;;;;;;5082308;28;21141;-77
2023/01/15 12:59:04;;;;;;;3.57;0.23;;;5.00;99.90;;;;;;5095270;28;20402;-78
2023/01/15 13:01:37;;;;;;;3.55;0.30;;;5.00;99.90;;;;;;5092904;28;20410;-77
2023/01/15 13:04:21;;;;;;;3.25;0.30;;;5.10;99.90;;;;;;5090946;28;20445;-78
2023/01/15 13:06:52;;;;;;;2.95;0.30;;;5.10;99.90;;;;;;5071058;28;20776;-78
2023/01/15 13:09:42;;;;;;;4.25;0.45;;;5.10;99.90;;;;;;5087584;28;20437;-78
2023/01/15 13:12:13;;;;;;;4.70;0.50;;;5.20;99.90;;;;;;5059524;28;20434;-78
2023/01/15 13:14:39;;;;;;;6.75;0.68;;;5.20;99.90;;;;;;5085181;28;20935;-77
2023/01/15 13:17:10;;;;;;;4.78;0.95;;;5.20;99.90;;;;;;5083511;28;20417;-78
2023/01/15 13:19:54;;;;;;;5.05;0.80;;;5.20;99.90;;;;;;5089718;28;20410;-78
2023/01/15 13:22:29;;;;;;;4.00;0.57;;;5.20;99.90;;;;;;5085012;28;20429;-78
2023/01/15 13:25:21;;;;;;;6.75;1.30;;;5.20;99.90;;;;;;5081806;28;20432;-77
2023/01/15 13:28:14;;;;;;;8.50;1.05;;;5.20;99.90;;;;;;5087149;28;20828;-78
2023/01/15 13:30:58;;;;;;;6.43;1.05;;;5.20;99.90;;;;;;5089664;28;20442;-78
2023/01/15 13:33:31;;;;;;;8.77;0.90;;;5.20;99.90;;;;;;5085515;28;20418;-79
2023/01/15 13:36:05;;;;;;;7.18;0.65;;;5.20;99.90;;;;;;5088884;28;20428;-78
2023/01/15 13:38:40;;;;;;;5.60;0.68;;;5.20;99.90;;;;;;5087959;28;20440;-78
2023/01/15 13:41:07;;;;;;;7.60;1.02;;;5.20;99.90;;;;;;5086088;28;20430;-79
2023/01/15 13:43:34;;;;;;;5.70;0.70;;;5.20;99.90;;;;;;5088083;28;20938;-78
2023/01/15 13:46:03;;;;;;;6.45;0.90;;;5.20;99.90;;;;;;5094179;28;20414;-78
2023/01/15 13:48:42;;;;;;;6.30;0.75;;;5.30;99.90;;;;;;5093196;28;20498;-78
2023/01/15 13:51:25;;;;;;;5.65;0.80;;;5.30;99.90;;;;;;5075823;28;21080;-78
2023/01/15 13:53:51;;;;;;;5.95;0.60;;;5.30;99.90;;;;;;5089009;28;20820;-79
2023/01/15 13:56:32;;;;;;;6.53;0.60;;;5.30;99.90;;;;;;5088161;28;20463;-79
2023/01/15 13:58:57;;;;;;;6.80;0.73;;;5.30;99.90;;;;;;5096295;28;21003;-79
2023/01/15 14:01:24;;;;;;;5.35;0.52;;;5.30;99.90;;;;;;5089651;28;20550;-78
2023/01/15 14:04:05;;;;;;;4.15;0.68;;;5.30;99.90;;;;;;5096215;28;20408;-78
2023/01/15 14:06:38;;;;;;;4.53;0.82;;;5.30;99.90;;;;;;5080869;28;20910;-79